sensor_id;sensor_type;location;lat;lon;timestamp;temperature;humidity
2763;DHT22;1389;51.490;7.338;2023-04-24T00:00:29;12.90;76.40
2763;DHT22;1389;51.490;7.338;2023-04-24T00:02:55;12.90;77.40
2763;DHT22;1389;51.490;7.338;2023-04-24T00:05:23;12.80;77.90
2763;DHT22;1389;51.490;7.338;2023-04-24T00:07:49;12.90;77.70
2763;DHT22;1389;51.490;7.338;2023-04-24T00:10:18;12.90;77.20
2763;DHT22;1389;51.490;7.338;2023-04-24T00:12:44;12.90;77.20
2763;DHT22;1389;51.490;7.338;2023-04-24T00:15:11;12.80;78.30
2763;DHT22;1389;51.490;7.338;2023-04-24T00:17:37;12.70;78.00
2763;DHT22;1389;51.490;7.338;2023-04-24T00:20:04;12.70;78.20
2763;DHT22;1389;51.490;7.338;2023-04-24T00:22:31;12.70;77.60
2763;DHT22;1389;51.490;7.338;2023-04-24T00:24:57;12.70;77.50
2763;DHT22;1389;51.490;7.338;2023-04-24T00:27:23;12.50;77.60
2763;DHT22;1389;51.490;7.338;2023-04-24T00:29:49;12.50;78.00
2763;DHT22;1389;51.490;7.338;2023-04-24T00:32:15;12.50;77.50
2763;DHT22;1389;51.490;7.338;2023-04-24T00:34:42;12.50;77.20
2763;DHT22;1389;51.490;7.338;2023-04-24T00:37:08;12.40;77.10
2763;DHT22;1389;51.490;7.338;2023-04-24T00:39:34;12.40;77.40
2763;DHT22;1389;51.490;7.338;2023-04-24T00:42:00;12.40;77.60
2763;DHT22;1389;51.490;7.338;2023-04-24T00:44:27;12.40;77.20
2763;DHT22;1389;51.490;7.338;2023-04-24T00:46:54;12.40;77.20
2763;DHT22;1389;51.490;7.338;2023-04-24T00:49:21;12.30;77.60
2763;DHT22;1389;51.490;7.338;2023-04-24T00:51:48;12.30;77.60
2763;DHT22;1389;51.490;7.338;2023-04-24T00:54:15;12.30;77.70
2763;DHT22;1389;51.490;7.338;2023-04-24T00:56:42;12.30;77.50
2763;DHT22;1389;51.490;7.338;2023-04-24T00:59:08;12.30;77.40
2763;DHT22;1389;51.490;7.338;2023-04-24T01:01:35;12.30;77.30
2763;DHT22;1389;51.490;7.338;2023-04-24T01:04:01;12.20;77.80
2763;DHT22;1389;51.490;7.338;2023-04-24T01:06:29;12.20;77.70
2763;DHT22;1389;51.490;7.338;2023-04-24T01:08:58;12.20;78.00
2763;DHT22;1389;51.490;7.338;2023-04-24T01:11:26;12.20;78.20
2763;DHT22;1389;51.490;7.338;2023-04-24T01:13:52;12.20;78.10
2763;DHT22;1389;51.490;7.338;2023-04-24T01:16:19;12.20;76.90
2763;DHT22;1389;51.490;7.338;2023-04-24T01:18:48;12.10;76.70
2763;DHT22;1389;51.490;7.338;2023-04-24T01:21:15;12.10;76.60
2763;DHT22;1389;51.490;7.338;2023-04-24T01:23:44;12.00;76.60
2763;DHT22;1389;51.490;7.338;2023-04-24T01:26:11;12.10;76.60
2763;DHT22;1389;51.490;7.338;2023-04-24T01:28:38;12.00;76.70
2763;DHT22;1389;51.490;7.338;2023-04-24T01:31:04;12.10;75.00
2763;DHT22;1389;51.490;7.338;2023-04-24T01:33:30;12.10;75.30
2763;DHT22;1389;51.490;7.338;2023-04-24T01:35:56;12.00;75.10
2763;DHT22;1389;51.490;7.338;2023-04-24T01:38:23;12.00;75.30
2763;DHT22;1389;51.490;7.338;2023-04-24T01:40:49;12.00;74.80
2763;DHT22;1389;51.490;7.338;2023-04-24T01:43:17;12.00;74.90
2763;DHT22;1389;51.490;7.338;2023-04-24T01:45:43;12.00;75.70
2763;DHT22;1389;51.490;7.338;2023-04-24T01:48:11;12.00;75.60
2763;DHT22;1389;51.490;7.338;2023-04-24T01:50:38;12.00;75.70
2763;DHT22;1389;51.490;7.338;2023-04-24T01:53:04;12.00;75.30
2763;DHT22;1389;51.490;7.338;2023-04-24T01:55:30;12.00;75.20
2763;DHT22;1389;51.490;7.338;2023-04-24T01:57:58;11.90;76.00
2763;DHT22;1389;51.490;7.338;2023-04-24T02:00:25;11.90;75.60
2763;DHT22;1389;51.490;7.338;2023-04-24T02:02:51;11.90;75.50
2763;DHT22;1389;51.490;7.338;2023-04-24T02:07:44;11.80;75.90
2763;DHT22;1389;51.490;7.338;2023-04-24T02:10:10;11.70;76.40
2763;DHT22;1389;51.490;7.338;2023-04-24T02:12:36;11.70;76.50
2763;DHT22;1389;51.490;7.338;2023-04-24T02:15:03;11.70;76.90
2763;DHT22;1389;51.490;7.338;2023-04-24T02:17:29;11.70;76.80
2763;DHT22;1389;51.490;7.338;2023-04-24T02:19:56;11.70;76.90
2763;DHT22;1389;51.490;7.338;2023-04-24T02:22:22;11.70;76.90
2763;DHT22;1389;51.490;7.338;2023-04-24T02:24:48;11.70;76.80
2763;DHT22;1389;51.490;7.338;2023-04-24T02:27:14;11.50;77.30
2763;DHT22;1389;51.490;7.338;2023-04-24T02:29:40;11.50;77.20
2763;DHT22;1389;51.490;7.338;2023-04-24T02:32:06;11.40;77.00
2763;DHT22;1389;51.490;7.338;2023-04-24T02:34:33;11.30;77.70
2763;DHT22;1389;51.490;7.338;2023-04-24T02:36:59;11.30;77.90
2763;DHT22;1389;51.490;7.338;2023-04-24T02:39:25;11.20;78.60
2763;DHT22;1389;51.490;7.338;2023-04-24T02:41:51;11.20;78.60
2763;DHT22;1389;51.490;7.338;2023-04-24T02:44:17;11.20;78.80
2763;DHT22;1389;51.490;7.338;2023-04-24T02:46:43;11.10;78.70
2763;DHT22;1389;51.490;7.338;2023-04-24T02:49:09;11.10;78.70
2763;DHT22;1389;51.490;7.338;2023-04-24T02:51:37;11.10;78.90
2763;DHT22;1389;51.490;7.338;2023-04-24T02:54:09;11.10;79.50
2763;DHT22;1389;51.490;7.338;2023-04-24T02:56:35;11.10;79.50
2763;DHT22;1389;51.490;7.338;2023-04-24T02:59:02;11.10;79.80
2763;DHT22;1389;51.490;7.338;2023-04-24T03:01:28;11.10;79.60
2763;DHT22;1389;51.490;7.338;2023-04-24T03:03:55;11.10;79.40
2763;DHT22;1389;51.490;7.338;2023-04-24T03:06:21;11.10;79.60
2763;DHT22;1389;51.490;7.338;2023-04-24T03:08:47;11.10;79.60
2763;DHT22;1389;51.490;7.338;2023-04-24T03:11:13;11.10;79.50
2763;DHT22;1389;51.490;7.338;2023-04-24T03:13:39;11.00;80.10
2763;DHT22;1389;51.490;7.338;2023-04-24T03:16:05;11.00;80.20
2763;DHT22;1389;51.490;7.338;2023-04-24T03:18:31;11.10;80.30
2763;DHT22;1389;51.490;7.338;2023-04-24T03:20:57;11.10;79.90
2763;DHT22;1389;51.490;7.338;2023-04-24T03:23:23;11.10;80.10
2763;DHT22;1389;51.490;7.338;2023-04-24T03:25:49;11.10;80.30
2763;DHT22;1389;51.490;7.338;2023-04-24T03:28:15;11.10;80.40
2763;DHT22;1389;51.490;7.338;2023-04-24T03:30:41;11.10;80.80
2763;DHT22;1389;51.490;7.338;2023-04-24T03:33:07;11.10;80.20
2763;DHT22;1389;51.490;7.338;2023-04-24T03:35:33;11.10;80.80
2763;DHT22;1389;51.490;7.338;2023-04-24T03:38:00;11.10;80.80
2763;DHT22;1389;51.490;7.338;2023-04-24T03:40:26;11.10;80.90
2763;DHT22;1389;51.490;7.338;2023-04-24T03:42:52;11.10;80.70
2763;DHT22;1389;51.490;7.338;2023-04-24T03:45:18;11.10;80.70
2763;DHT22;1389;51.490;7.338;2023-04-24T03:47:44;11.10;80.60
2763;DHT22;1389;51.490;7.338;2023-04-24T03:50:10;11.10;80.60
2763;DHT22;1389;51.490;7.338;2023-04-24T03:52:36;11.10;80.70
2763;DHT22;1389;51.490;7.338;2023-04-24T03:55:02;11.10;80.90
2763;DHT22;1389;51.490;7.338;2023-04-24T03:57:28;11.10;81.00
2763;DHT22;1389;51.490;7.338;2023-04-24T03:59:54;11.10;80.90
2763;DHT22;1389;51.490;7.338;2023-04-24T04:02:21;11.10;81.20
2763;DHT22;1389;51.490;7.338;2023-04-24T04:04:47;11.20;81.20
2763;DHT22;1389;51.490;7.338;2023-04-24T04:07:13;11.10;80.90
2763;DHT22;1389;51.490;7.338;2023-04-24T04:12:05;11.10;80.40
2763;DHT22;1389;51.490;7.338;2023-04-24T04:14:31;11.10;80.60
2763;DHT22;1389;51.490;7.338;2023-04-24T04:16:57;11.10;80.70
2763;DHT22;1389;51.490;7.338;2023-04-24T04:19:24;11.10;80.90
2763;DHT22;1389;51.490;7.338;2023-04-24T04:21:50;11.10;80.70
2763;DHT22;1389;51.490;7.338;2023-04-24T04:24:19;11.10;80.80
2763;DHT22;1389;51.490;7.338;2023-04-24T04:26:46;11.10;80.80
2763;DHT22;1389;51.490;7.338;2023-04-24T04:29:13;11.10;80.80
2763;DHT22;1389;51.490;7.338;2023-04-24T04:31:39;11.10;80.60
2763;DHT22;1389;51.490;7.338;2023-04-24T04:34:05;11.10;81.30
2763;DHT22;1389;51.490;7.338;2023-04-24T04:36:33;11.10;81.10
2763;DHT22;1389;51.490;7.338;2023-04-24T04:39:02;11.10;81.30
2763;DHT22;1389;51.490;7.338;2023-04-24T04:41:29;11.20;80.90
2763;DHT22;1389;51.490;7.338;2023-04-24T04:43:55;11.20;80.30
2763;DHT22;1389;51.490;7.338;2023-04-24T04:46:24;11.10;80.50
2763;DHT22;1389;51.490;7.338;2023-04-24T04:48:53;11.10;80.70
2763;DHT22;1389;51.490;7.338;2023-04-24T04:51:19;11.10;80.80
2763;DHT22;1389;51.490;7.338;2023-04-24T04:53:45;11.10;80.50
2763;DHT22;1389;51.490;7.338;2023-04-24T04:56:12;11.10;80.00
2763;DHT22;1389;51.490;7.338;2023-04-24T04:58:38;11.10;80.90
2763;DHT22;1389;51.490;7.338;2023-04-24T05:01:04;11.10;80.90
2763;DHT22;1389;51.490;7.338;2023-04-24T05:03:30;11.10;80.80
2763;DHT22;1389;51.490;7.338;2023-04-24T05:05:57;11.10;80.60
2763;DHT22;1389;51.490;7.338;2023-04-24T05:08:23;11.10;80.80
2763;DHT22;1389;51.490;7.338;2023-04-24T05:10:49;11.10;80.10
2763;DHT22;1389;51.490;7.338;2023-04-24T05:13:15;11.10;80.10
2763;DHT22;1389;51.490;7.338;2023-04-24T05:15:41;11.10;80.10
2763;DHT22;1389;51.490;7.338;2023-04-24T05:18:07;11.10;80.20
2763;DHT22;1389;51.490;7.338;2023-04-24T05:20:33;11.10;80.20
2763;DHT22;1389;51.490;7.338;2023-04-24T05:22:59;11.10;80.50
2763;DHT22;1389;51.490;7.338;2023-04-24T05:25:25;11.10;80.50
2763;DHT22;1389;51.490;7.338;2023-04-24T05:27:51;11.10;80.40
2763;DHT22;1389;51.490;7.338;2023-04-24T05:30:19;11.10;80.40
2763;DHT22;1389;51.490;7.338;2023-04-24T05:32:45;11.10;80.30
2763;DHT22;1389;51.490;7.338;2023-04-24T05:35:11;11.20;80.20
2763;DHT22;1389;51.490;7.338;2023-04-24T05:37:37;11.20;79.90
2763;DHT22;1389;51.490;7.338;2023-04-24T05:40:04;11.20;80.10
2763;DHT22;1389;51.490;7.338;2023-04-24T05:42:31;11.20;79.90
2763;DHT22;1389;51.490;7.338;2023-04-24T05:44:57;11.20;79.50
2763;DHT22;1389;51.490;7.338;2023-04-24T05:47:23;11.10;79.60
2763;DHT22;1389;51.490;7.338;2023-04-24T05:49:50;11.10;80.10
2763;DHT22;1389;51.490;7.338;2023-04-24T05:54:42;10.90;81.10
2763;DHT22;1389;51.490;7.338;2023-04-24T05:57:08;10.80;82.50
2763;DHT22;1389;51.490;7.338;2023-04-24T05:59:36;10.80;83.10
2763;DHT22;1389;51.490;7.338;2023-04-24T06:02:03;10.80;83.20
2763;DHT22;1389;51.490;7.338;2023-04-24T06:04:29;10.70;83.40
2763;DHT22;1389;51.490;7.338;2023-04-24T06:06:55;10.70;84.70
2763;DHT22;1389;51.490;7.338;2023-04-24T06:09:22;10.70;84.90
2763;DHT22;1389;51.490;7.338;2023-04-24T06:11:49;10.70;85.10
2763;DHT22;1389;51.490;7.338;2023-04-24T06:14:18;10.70;85.10
2763;DHT22;1389;51.490;7.338;2023-04-24T06:16:44;10.70;85.20
2763;DHT22;1389;51.490;7.338;2023-04-24T06:19:10;10.70;85.10
2763;DHT22;1389;51.490;7.338;2023-04-24T06:21:36;10.80;85.30
2763;DHT22;1389;51.490;7.338;2023-04-24T06:24:03;10.80;85.30
2763;DHT22;1389;51.490;7.338;2023-04-24T06:26:30;10.80;84.70
2763;DHT22;1389;51.490;7.338;2023-04-24T06:28:56;10.80;84.60
2763;DHT22;1389;51.490;7.338;2023-04-24T06:33:50;10.70;84.60
2763;DHT22;1389;51.490;7.338;2023-04-24T06:36:16;10.70;83.50
2763;DHT22;1389;51.490;7.338;2023-04-24T06:38:42;10.60;84.10
2763;DHT22;1389;51.490;7.338;2023-04-24T06:41:09;10.50;84.50
2763;DHT22;1389;51.490;7.338;2023-04-24T06:43:36;10.60;84.70
2763;DHT22;1389;51.490;7.338;2023-04-24T06:46:02;10.60;84.30
2763;DHT22;1389;51.490;7.338;2023-04-24T06:48:29;10.60;84.00
2763;DHT22;1389;51.490;7.338;2023-04-24T06:50:55;10.60;83.30
2763;DHT22;1389;51.490;7.338;2023-04-24T06:53:21;10.60;84.10
2763;DHT22;1389;51.490;7.338;2023-04-24T06:55:47;10.70;84.30
2763;DHT22;1389;51.490;7.338;2023-04-24T06:58:14;10.70;84.00
2763;DHT22;1389;51.490;7.338;2023-04-24T07:00:40;10.70;84.60
2763;DHT22;1389;51.490;7.338;2023-04-24T07:03:06;10.80;85.30
2763;DHT22;1389;51.490;7.338;2023-04-24T07:05:32;10.90;85.00
2763;DHT22;1389;51.490;7.338;2023-04-24T07:08:01;11.10;83.80
2763;DHT22;1389;51.490;7.338;2023-04-24T07:10:27;11.10;83.70
2763;DHT22;1389;51.490;7.338;2023-04-24T07:12:55;10.90;84.10
2763;DHT22;1389;51.490;7.338;2023-04-24T07:15:22;10.80;85.20
2763;DHT22;1389;51.490;7.338;2023-04-24T07:17:49;10.80;85.20
2763;DHT22;1389;51.490;7.338;2023-04-24T07:20:15;10.70;86.00
2763;DHT22;1389;51.490;7.338;2023-04-24T07:22:41;10.70;86.90
2763;DHT22;1389;51.490;7.338;2023-04-24T07:25:08;10.70;87.50
2763;DHT22;1389;51.490;7.338;2023-04-24T07:27:34;10.80;87.30
2763;DHT22;1389;51.490;7.338;2023-04-24T07:30:03;10.80;86.80
2763;DHT22;1389;51.490;7.338;2023-04-24T07:32:30;10.80;86.50
2763;DHT22;1389;51.490;7.338;2023-04-24T07:34:56;10.80;87.00
2763;DHT22;1389;51.490;7.338;2023-04-24T07:37:22;10.80;86.80
2763;DHT22;1389;51.490;7.338;2023-04-24T07:39:49;10.70;86.20
2763;DHT22;1389;51.490;7.338;2023-04-24T07:42:15;10.70;85.90
2763;DHT22;1389;51.490;7.338;2023-04-24T07:44:41;10.70;86.10
2763;DHT22;1389;51.490;7.338;2023-04-24T07:47:08;10.60;86.20
2763;DHT22;1389;51.490;7.338;2023-04-24T07:49:34;10.60;86.00
2763;DHT22;1389;51.490;7.338;2023-04-24T07:52:00;10.50;86.70
2763;DHT22;1389;51.490;7.338;2023-04-24T07:54:28;10.50;86.50
2763;DHT22;1389;51.490;7.338;2023-04-24T07:56:54;10.50;87.00
2763;DHT22;1389;51.490;7.338;2023-04-24T07:59:20;10.40;87.40
2763;DHT22;1389;51.490;7.338;2023-04-24T08:01:46;10.30;87.70
2763;DHT22;1389;51.490;7.338;2023-04-24T08:04:12;10.30;88.50
2763;DHT22;1389;51.490;7.338;2023-04-24T08:06:38;10.50;88.50
2763;DHT22;1389;51.490;7.338;2023-04-24T08:09:04;10.50;88.20
2763;DHT22;1389;51.490;7.338;2023-04-24T08:11:31;10.50;86.90
2763;DHT22;1389;51.490;7.338;2023-04-24T08:13:58;10.50;86.90
2763;DHT22;1389;51.490;7.338;2023-04-24T08:16:24;10.50;85.40
2763;DHT22;1389;51.490;7.338;2023-04-24T08:18:50;10.50;85.60
2763;DHT22;1389;51.490;7.338;2023-04-24T08:21:16;10.40;84.90
2763;DHT22;1389;51.490;7.338;2023-04-24T08:23:45;10.20;85.00
2763;DHT22;1389;51.490;7.338;2023-04-24T08:26:14;10.00;83.20
2763;DHT22;1389;51.490;7.338;2023-04-24T08:28:40;9.90;84.10
2763;DHT22;1389;51.490;7.338;2023-04-24T08:31:06;9.90;85.50
2763;DHT22;1389;51.490;7.338;2023-04-24T08:33:32;10.00;85.50
2763;DHT22;1389;51.490;7.338;2023-04-24T08:36:02;10.00;85.60
2763;DHT22;1389;51.490;7.338;2023-04-24T08:38:28;10.00;86.00
2763;DHT22;1389;51.490;7.338;2023-04-24T08:40:56;10.10;85.90
2763;DHT22;1389;51.490;7.338;2023-04-24T08:43:22;10.00;86.20
2763;DHT22;1389;51.490;7.338;2023-04-24T08:45:49;10.00;86.00
2763;DHT22;1389;51.490;7.338;2023-04-24T08:48:15;10.00;85.80
2763;DHT22;1389;51.490;7.338;2023-04-24T08:50:42;10.10;86.40
2763;DHT22;1389;51.490;7.338;2023-04-24T08:53:10;10.00;86.60
2763;DHT22;1389;51.490;7.338;2023-04-24T08:55:37;10.00;86.40
2763;DHT22;1389;51.490;7.338;2023-04-24T08:58:04;10.00;86.90
2763;DHT22;1389;51.490;7.338;2023-04-24T09:00:30;9.90;87.10
2763;DHT22;1389;51.490;7.338;2023-04-24T09:02:57;9.90;87.70
2763;DHT22;1389;51.490;7.338;2023-04-24T09:05:23;9.70;88.20
2763;DHT22;1389;51.490;7.338;2023-04-24T09:07:53;9.70;89.00
2763;DHT22;1389;51.490;7.338;2023-04-24T09:10:24;9.60;89.40
2763;DHT22;1389;51.490;7.338;2023-04-24T09:12:51;9.60;89.80
2763;DHT22;1389;51.490;7.338;2023-04-24T09:15:19;9.60;90.60
2763;DHT22;1389;51.490;7.338;2023-04-24T09:17:46;9.50;90.70
2763;DHT22;1389;51.490;7.338;2023-04-24T09:20:12;9.60;91.00
2763;DHT22;1389;51.490;7.338;2023-04-24T09:22:38;9.60;91.60
2763;DHT22;1389;51.490;7.338;2023-04-24T09:25:06;9.60;91.10
2763;DHT22;1389;51.490;7.338;2023-04-24T09:27:33;9.60;91.00
2763;DHT22;1389;51.490;7.338;2023-04-24T09:30:00;9.50;91.40
2763;DHT22;1389;51.490;7.338;2023-04-24T09:32:27;9.60;91.80
2763;DHT22;1389;51.490;7.338;2023-04-24T09:35:06;9.60;92.20
2763;DHT22;1389;51.490;7.338;2023-04-24T09:37:45;9.60;92.70
2763;DHT22;1389;51.490;7.338;2023-04-24T09:40:19;9.50;93.00
2763;DHT22;1389;51.490;7.338;2023-04-24T09:42:53;9.50;93.20
2763;DHT22;1389;51.490;7.338;2023-04-24T09:45:20;9.60;93.30
2763;DHT22;1389;51.490;7.338;2023-04-24T09:47:46;9.60;93.20
2763;DHT22;1389;51.490;7.338;2023-04-24T09:50:16;9.60;93.60
2763;DHT22;1389;51.490;7.338;2023-04-24T09:52:47;9.60;93.70
2763;DHT22;1389;51.490;7.338;2023-04-24T09:55:21;9.60;93.80
2763;DHT22;1389;51.490;7.338;2023-04-24T09:57:49;9.60;94.30
2763;DHT22;1389;51.490;7.338;2023-04-24T10:00:22;9.60;94.30
2763;DHT22;1389;51.490;7.338;2023-04-24T10:03:04;9.60;94.60
2763;DHT22;1389;51.490;7.338;2023-04-24T10:05:35;9.60;94.80
2763;DHT22;1389;51.490;7.338;2023-04-24T10:08:03;9.30;94.40
2763;DHT22;1389;51.490;7.338;2023-04-24T10:10:31;9.20;94.70
2763;DHT22;1389;51.490;7.338;2023-04-24T10:12:57;9.20;94.90
2763;DHT22;1389;51.490;7.338;2023-04-24T10:15:26;9.20;95.00
2763;DHT22;1389;51.490;7.338;2023-04-24T10:17:52;9.10;95.50
2763;DHT22;1389;51.490;7.338;2023-04-24T10:20:21;9.10;95.70
2763;DHT22;1389;51.490;7.338;2023-04-24T10:22:49;9.10;95.60
2763;DHT22;1389;51.490;7.338;2023-04-24T10:25:18;8.90;95.00
2763;DHT22;1389;51.490;7.338;2023-04-24T10:27:45;8.80;95.10
2763;DHT22;1389;51.490;7.338;2023-04-24T10:30:12;8.70;95.70
2763;DHT22;1389;51.490;7.338;2023-04-24T10:32:39;8.70;95.80
2763;DHT22;1389;51.490;7.338;2023-04-24T10:35:07;8.60;96.00
2763;DHT22;1389;51.490;7.338;2023-04-24T10:38:03;8.60;96.20
2763;DHT22;1389;51.490;7.338;2023-04-24T10:40:33;8.60;96.70
2763;DHT22;1389;51.490;7.338;2023-04-24T10:43:02;8.60;96.90
2763;DHT22;1389;51.490;7.338;2023-04-24T10:45:31;8.70;97.00
2763;DHT22;1389;51.490;7.338;2023-04-24T10:50:27;8.80;97.30
2763;DHT22;1389;51.490;7.338;2023-04-24T10:52:55;8.90;97.30
2763;DHT22;1389;51.490;7.338;2023-04-24T10:55:47;8.90;97.30
2763;DHT22;1389;51.490;7.338;2023-04-24T10:58:14;8.90;97.40
2763;DHT22;1389;51.490;7.338;2023-04-24T11:00:43;8.90;97.40
2763;DHT22;1389;51.490;7.338;2023-04-24T11:03:28;8.90;97.90
2763;DHT22;1389;51.490;7.338;2023-04-24T11:05:58;8.90;97.80
2763;DHT22;1389;51.490;7.338;2023-04-24T11:08:37;8.90;97.90
2763;DHT22;1389;51.490;7.338;2023-04-24T11:11:14;8.90;97.80
2763;DHT22;1389;51.490;7.338;2023-04-24T11:21:45;8.90;97.80
2763;DHT22;1389;51.490;7.338;2023-04-24T11:24:31;8.90;97.90
2763;DHT22;1389;51.490;7.338;2023-04-24T11:27:05;8.90;98.20
2763;DHT22;1389;51.490;7.338;2023-04-24T11:29:40;9.00;98.40
2763;DHT22;1389;51.490;7.338;2023-04-24T11:32:22;9.10;98.40
2763;DHT22;1389;51.490;7.338;2023-04-24T11:34:50;9.10;98.20
2763;DHT22;1389;51.490;7.338;2023-04-24T11:37:17;9.10;97.90
2763;DHT22;1389;51.490;7.338;2023-04-24T11:39:43;9.00;97.50
2763;DHT22;1389;51.490;7.338;2023-04-24T11:42:09;9.00;97.50
2763;DHT22;1389;51.490;7.338;2023-04-24T11:44:36;9.00;98.20
2763;DHT22;1389;51.490;7.338;2023-04-24T11:47:06;9.10;98.10
2763;DHT22;1389;51.490;7.338;2023-04-24T11:49:38;9.20;98.10
2763;DHT22;1389;51.490;7.338;2023-04-24T11:52:05;9.20;98.10
2763;DHT22;1389;51.490;7.338;2023-04-24T11:54:31;9.20;98.30
2763;DHT22;1389;51.490;7.338;2023-04-24T11:56:57;9.40;98.90
2763;DHT22;1389;51.490;7.338;2023-04-24T11:59:23;9.50;98.50
2763;DHT22;1389;51.490;7.338;2023-04-24T12:01:49;9.60;98.30
2763;DHT22;1389;51.490;7.338;2023-04-24T12:04:17;9.60;96.90
2763;DHT22;1389;51.490;7.338;2023-04-24T12:07:04;9.40;95.90
2763;DHT22;1389;51.490;7.338;2023-04-24T12:09:55;9.40;96.40
2763;DHT22;1389;51.490;7.338;2023-04-24T12:12:25;9.40;96.30
2763;DHT22;1389;51.490;7.338;2023-04-24T12:14:58;9.30;95.70
2763;DHT22;1389;51.490;7.338;2023-04-24T12:17:29;9.30;95.20
2763;DHT22;1389;51.490;7.338;2023-04-24T12:20:01;9.20;95.10
2763;DHT22;1389;51.490;7.338;2023-04-24T12:25:17;9.20;94.10
2763;DHT22;1389;51.490;7.338;2023-04-24T12:27:45;9.30;94.60
2763;DHT22;1389;51.490;7.338;2023-04-24T12:30:14;9.40;93.30
2763;DHT22;1389;51.490;7.338;2023-04-24T12:32:45;9.50;92.80
2763;DHT22;1389;51.490;7.338;2023-04-24T12:35:12;9.70;93.00
2763;DHT22;1389;51.490;7.338;2023-04-24T12:37:41;9.90;92.90
2763;DHT22;1389;51.490;7.338;2023-04-24T12:40:10;10.00;92.00
2763;DHT22;1389;51.490;7.338;2023-04-24T12:42:51;10.10;91.60
2763;DHT22;1389;51.490;7.338;2023-04-24T12:45:18;10.20;91.60
2763;DHT22;1389;51.490;7.338;2023-04-24T12:47:46;10.20;89.30
2763;DHT22;1389;51.490;7.338;2023-04-24T12:50:14;10.20;87.60
2763;DHT22;1389;51.490;7.338;2023-04-24T12:52:40;10.20;86.80
2763;DHT22;1389;51.490;7.338;2023-04-24T12:55:07;10.10;87.70
2763;DHT22;1389;51.490;7.338;2023-04-24T12:57:35;10.10;88.00
2763;DHT22;1389;51.490;7.338;2023-04-24T13:00:02;10.10;88.00
2763;DHT22;1389;51.490;7.338;2023-04-24T13:02:31;10.10;88.30
2763;DHT22;1389;51.490;7.338;2023-04-24T13:05:00;10.10;87.40
2763;DHT22;1389;51.490;7.338;2023-04-24T13:07:27;10.00;86.70
2763;DHT22;1389;51.490;7.338;2023-04-24T13:09:54;10.00;86.80
2763;DHT22;1389;51.490;7.338;2023-04-24T13:12:21;10.00;87.10
2763;DHT22;1389;51.490;7.338;2023-04-24T13:14:48;10.00;87.50
2763;DHT22;1389;51.490;7.338;2023-04-24T13:17:14;10.00;86.70
2763;DHT22;1389;51.490;7.338;2023-04-24T13:19:42;10.10;86.90
2763;DHT22;1389;51.490;7.338;2023-04-24T13:22:11;10.20;86.80
2763;DHT22;1389;51.490;7.338;2023-04-24T13:24:38;10.30;86.10
2763;DHT22;1389;51.490;7.338;2023-04-24T13:27:07;10.50;85.00
2763;DHT22;1389;51.490;7.338;2023-04-24T13:29:33;10.50;83.70
2763;DHT22;1389;51.490;7.338;2023-04-24T13:31:59;10.60;81.50
2763;DHT22;1389;51.490;7.338;2023-04-24T13:34:26;10.60;80.70
2763;DHT22;1389;51.490;7.338;2023-04-24T13:36:57;10.50;80.90
2763;DHT22;1389;51.490;7.338;2023-04-24T13:39:24;10.50;81.60
2763;DHT22;1389;51.490;7.338;2023-04-24T13:41:51;10.50;81.50
2763;DHT22;1389;51.490;7.338;2023-04-24T13:44:18;10.50;81.90
2763;DHT22;1389;51.490;7.338;2023-04-24T13:46:46;10.40;81.30
2763;DHT22;1389;51.490;7.338;2023-04-24T13:49:13;10.40;81.20
2763;DHT22;1389;51.490;7.338;2023-04-24T13:51:40;10.40;80.80
2763;DHT22;1389;51.490;7.338;2023-04-24T13:54:07;10.50;80.00
2763;DHT22;1389;51.490;7.338;2023-04-24T13:56:33;10.50;80.00
2763;DHT22;1389;51.490;7.338;2023-04-24T13:58:59;10.50;79.80
2763;DHT22;1389;51.490;7.338;2023-04-24T14:01:25;10.40;79.50
2763;DHT22;1389;51.490;7.338;2023-04-24T14:03:52;10.40;80.00
2763;DHT22;1389;51.490;7.338;2023-04-24T14:08:45;10.50;79.40
2763;DHT22;1389;51.490;7.338;2023-04-24T14:11:11;10.50;79.50
2763;DHT22;1389;51.490;7.338;2023-04-24T14:13:39;10.50;79.20
2763;DHT22;1389;51.490;7.338;2023-04-24T14:16:06;10.50;79.20
2763;DHT22;1389;51.490;7.338;2023-04-24T14:18:32;10.50;79.80
2763;DHT22;1389;51.490;7.338;2023-04-24T14:20:58;10.60;79.80
2763;DHT22;1389;51.490;7.338;2023-04-24T14:23:25;10.70;80.30
2763;DHT22;1389;51.490;7.338;2023-04-24T14:25:51;10.90;79.10
2763;DHT22;1389;51.490;7.338;2023-04-24T14:28:19;11.00;79.20
2763;DHT22;1389;51.490;7.338;2023-04-24T14:30:45;11.10;78.50
2763;DHT22;1389;51.490;7.338;2023-04-24T14:33:11;11.20;77.80
2763;DHT22;1389;51.490;7.338;2023-04-24T14:35:39;11.20;76.20
2763;DHT22;1389;51.490;7.338;2023-04-24T14:38:06;11.20;75.80
2763;DHT22;1389;51.490;7.338;2023-04-24T14:40:32;11.10;76.20
2763;DHT22;1389;51.490;7.338;2023-04-24T14:42:58;11.10;76.60
2763;DHT22;1389;51.490;7.338;2023-04-24T14:45:25;11.10;76.50
2763;DHT22;1389;51.490;7.338;2023-04-24T14:47:51;11.00;75.70
2763;DHT22;1389;51.490;7.338;2023-04-24T14:50:17;10.90;75.40
2763;DHT22;1389;51.490;7.338;2023-04-24T14:52:43;10.90;75.70
2763;DHT22;1389;51.490;7.338;2023-04-24T14:55:09;10.80;75.20
2763;DHT22;1389;51.490;7.338;2023-04-24T14:57:35;10.80;75.30
2763;DHT22;1389;51.490;7.338;2023-04-24T15:00:03;10.80;76.00
2763;DHT22;1389;51.490;7.338;2023-04-24T15:02:33;10.70;76.40
2763;DHT22;1389;51.490;7.338;2023-04-24T15:04:59;10.70;77.40
2763;DHT22;1389;51.490;7.338;2023-04-24T15:07:25;10.70;77.90
2763;DHT22;1389;51.490;7.338;2023-04-24T15:09:51;10.60;78.10
2763;DHT22;1389;51.490;7.338;2023-04-24T15:12:17;10.50;79.40
2763;DHT22;1389;51.490;7.338;2023-04-24T15:14:43;10.50;80.20
2763;DHT22;1389;51.490;7.338;2023-04-24T15:17:09;10.40;82.00
2763;DHT22;1389;51.490;7.338;2023-04-24T15:19:35;10.40;82.20
2763;DHT22;1389;51.490;7.338;2023-04-24T15:22:01;10.40;82.90
2763;DHT22;1389;51.490;7.338;2023-04-24T15:24:27;10.40;83.20
2763;DHT22;1389;51.490;7.338;2023-04-24T15:26:53;10.30;83.80
2763;DHT22;1389;51.490;7.338;2023-04-24T15:29:19;10.20;85.30
2763;DHT22;1389;51.490;7.338;2023-04-24T15:31:45;10.20;86.10
2763;DHT22;1389;51.490;7.338;2023-04-24T15:34:11;10.40;87.10
2763;DHT22;1389;51.490;7.338;2023-04-24T15:36:37;10.70;86.50
2763;DHT22;1389;51.490;7.338;2023-04-24T15:39:03;10.90;86.20
2763;DHT22;1389;51.490;7.338;2023-04-24T15:41:29;11.00;84.60
2763;DHT22;1389;51.490;7.338;2023-04-24T15:43:57;11.10;84.10
2763;DHT22;1389;51.490;7.338;2023-04-24T15:46:23;11.10;83.10
2763;DHT22;1389;51.490;7.338;2023-04-24T15:48:50;11.10;82.60
2763;DHT22;1389;51.490;7.338;2023-04-24T15:51:16;11.00;82.50
2763;DHT22;1389;51.490;7.338;2023-04-24T15:53:42;11.00;82.30
2763;DHT22;1389;51.490;7.338;2023-04-24T15:56:08;10.90;81.70
2763;DHT22;1389;51.490;7.338;2023-04-24T15:58:35;10.90;82.40
2763;DHT22;1389;51.490;7.338;2023-04-24T16:01:01;11.00;81.70
2763;DHT22;1389;51.490;7.338;2023-04-24T16:03:27;11.00;81.10
2763;DHT22;1389;51.490;7.338;2023-04-24T16:05:53;11.00;80.90
2763;DHT22;1389;51.490;7.338;2023-04-24T16:08:19;11.00;79.40
2763;DHT22;1389;51.490;7.338;2023-04-24T16:10:46;11.00;79.60
2763;DHT22;1389;51.490;7.338;2023-04-24T16:13:13;11.10;78.80
2763;DHT22;1389;51.490;7.338;2023-04-24T16:15:39;11.10;79.00
2763;DHT22;1389;51.490;7.338;2023-04-24T16:18:06;11.10;79.50
2763;DHT22;1389;51.490;7.338;2023-04-24T16:20:32;11.10;78.90
2763;DHT22;1389;51.490;7.338;2023-04-24T16:22:58;11.10;77.80
2763;DHT22;1389;51.490;7.338;2023-04-24T16:25:24;11.00;77.20
2763;DHT22;1389;51.490;7.338;2023-04-24T16:27:50;11.00;77.00
2763;DHT22;1389;51.490;7.338;2023-04-24T16:30:18;11.00;76.80